sensor_id;sensor_type;location;lat;lon;timestamp;P1;durP1;ratioP1;P2;durP2;ratioP2
51814;SDS011;37874;53.158;6.766;2023-03-01T00:00:19;3.95;;;2.92;;
51814;SDS011;37874;53.158;6.766;2023-03-01T00:02:44;3.90;;;2.97;;
51814;SDS011;37874;53.158;6.766;2023-03-01T00:05:10;3.85;;;2.90;;
51814;SDS011;37874;53.158;6.766;2023-03-01T00:07:36;3.92;;;2.97;;
51814;SDS011;37874;53.158;6.766;2023-03-01T00:10:01;4.65;;;3.30;;
51814;SDS011;37874;53.158;6.766;2023-03-01T00:12:27;3.60;;;2.70;;
51814;SDS011;37874;53.158;6.766;2023-03-01T00:14:53;3.30;;;2.70;;
51814;SDS011;37874;53.158;6.766;2023-03-01T00:17:18;4.28;;;2.63;;
51814;SDS011;37874;53.158;6.766;2023-03-01T00:19:44;5.07;;;2.97;;
51814;SDS011;37874;53.158;6.766;2023-03-01T00:22:09;5.00;;;3.00;;
51814;SDS011;37874;53.158;6.766;2023-03-01T00:24:35;4.22;;;3.20;;
51814;SDS011;37874;53.158;6.766;2023-03-01T00:27:00;4.55;;;3.08;;
51814;SDS011;37874;53.158;6.766;2023-03-01T00:29:26;3.72;;;2.97;;
51814;SDS011;37874;53.158;6.766;2023-03-01T00:31:52;3.55;;;2.90;;
51814;SDS011;37874;53.158;6.766;2023-03-01T00:34:18;3.50;;;2.92;;
51814;SDS011;37874;53.158;6.766;2023-03-01T00:36:43;3.85;;;2.75;;
51814;SDS011;37874;53.158;6.766;2023-03-01T00:39:13;3.63;;;2.88;;
51814;SDS011;37874;53.158;6.766;2023-03-01T00:41:40;3.95;;;2.92;;
51814;SDS011;37874;53.158;6.766;2023-03-01T00:44:06;4.03;;;3.00;;
51814;SDS011;37874;53.158;6.766;2023-03-01T00:46:31;3.92;;;2.90;;
51814;SDS011;37874;53.158;6.766;2023-03-01T00:48:58;3.67;;;2.90;;
51814;SDS011;37874;53.158;6.766;2023-03-01T00:51:27;3.83;;;2.90;;
51814;SDS011;37874;53.158;6.766;2023-03-01T00:53:54;3.88;;;2.92;;
51814;SDS011;37874;53.158;6.766;2023-03-01T00:56:21;5.07;;;3.05;;
51814;SDS011;37874;53.158;6.766;2023-03-01T00:58:48;3.75;;;3.08;;
51814;SDS011;37874;53.158;6.766;2023-03-01T01:01:32;3.45;;;2.67;;
51814;SDS011;37874;53.158;6.766;2023-03-01T01:04:02;5.22;;;3.03;;
51814;SDS011;37874;53.158;6.766;2023-03-01T01:06:33;4.35;;;3.10;;
51814;SDS011;37874;53.158;6.766;2023-03-01T01:09:02;4.20;;;3.28;;
51814;SDS011;37874;53.158;6.766;2023-03-01T01:11:29;4.10;;;3.00;;
51814;SDS011;37874;53.158;6.766;2023-03-01T01:13:55;3.88;;;3.20;;
51814;SDS011;37874;53.158;6.766;2023-03-01T01:16:22;3.40;;;2.92;;
51814;SDS011;37874;53.158;6.766;2023-03-01T01:18:48;4.00;;;3.30;;
51814;SDS011;37874;53.158;6.766;2023-03-01T01:21:16;4.57;;;3.13;;
51814;SDS011;37874;53.158;6.766;2023-03-01T01:23:43;4.75;;;3.50;;
51814;SDS011;37874;53.158;6.766;2023-03-01T01:26:11;5.22;;;3.53;;
51814;SDS011;37874;53.158;6.766;2023-03-01T01:28:42;4.22;;;3.40;;
51814;SDS011;37874;53.158;6.766;2023-03-01T01:31:07;4.45;;;3.35;;
51814;SDS011;37874;53.158;6.766;2023-03-01T01:33:33;4.35;;;3.40;;
51814;SDS011;37874;53.158;6.766;2023-03-01T01:35:59;5.35;;;3.50;;
51814;SDS011;37874;53.158;6.766;2023-03-01T01:38:25;3.88;;;3.03;;
51814;SDS011;37874;53.158;6.766;2023-03-01T01:40:51;4.07;;;2.95;;
51814;SDS011;37874;53.158;6.766;2023-03-01T01:43:24;4.82;;;3.22;;
51814;SDS011;37874;53.158;6.766;2023-03-01T01:45:52;4.15;;;3.28;;
51814;SDS011;37874;53.158;6.766;2023-03-01T01:48:23;4.18;;;3.25;;
51814;SDS011;37874;53.158;6.766;2023-03-01T01:51:05;4.13;;;3.22;;
51814;SDS011;37874;53.158;6.766;2023-03-01T01:53:43;4.28;;;3.20;;
51814;SDS011;37874;53.158;6.766;2023-03-01T01:56:12;4.20;;;3.22;;
51814;SDS011;37874;53.158;6.766;2023-03-01T01:58:39;4.05;;;3.33;;
51814;SDS011;37874;53.158;6.766;2023-03-01T02:01:07;4.35;;;3.28;;
51814;SDS011;37874;53.158;6.766;2023-03-01T02:03:33;4.38;;;3.40;;
51814;SDS011;37874;53.158;6.766;2023-03-01T02:08:59;7.05;;;3.72;;
51814;SDS011;37874;53.158;6.766;2023-03-01T02:11:29;4.97;;;3.25;;
51814;SDS011;37874;53.158;6.766;2023-03-01T02:13:56;4.07;;;3.28;;
51814;SDS011;37874;53.158;6.766;2023-03-01T02:16:22;4.93;;;3.40;;
51814;SDS011;37874;53.158;6.766;2023-03-01T02:18:47;4.50;;;3.72;;
51814;SDS011;37874;53.158;6.766;2023-03-01T02:21:17;4.13;;;3.10;;
51814;SDS011;37874;53.158;6.766;2023-03-01T02:23:54;4.63;;;3.30;;
51814;SDS011;37874;53.158;6.766;2023-03-01T02:29:02;4.45;;;3.70;;
51814;SDS011;37874;53.158;6.766;2023-03-01T02:31:30;4.57;;;3.67;;
51814;SDS011;37874;53.158;6.766;2023-03-01T02:34:18;4.57;;;3.30;;
51814;SDS011;37874;53.158;6.766;2023-03-01T02:36:47;4.22;;;3.47;;
51814;SDS011;37874;53.158;6.766;2023-03-01T02:39:27;4.15;;;3.30;;
51814;SDS011;37874;53.158;6.766;2023-03-01T02:41:56;4.22;;;3.20;;
51814;SDS011;37874;53.158;6.766;2023-03-01T02:44:23;4.22;;;3.42;;
51814;SDS011;37874;53.158;6.766;2023-03-01T02:46:51;4.07;;;3.08;;
51814;SDS011;37874;53.158;6.766;2023-03-01T02:49:28;4.25;;;3.47;;
51814;SDS011;37874;53.158;6.766;2023-03-01T02:54:46;4.28;;;3.40;;
51814;SDS011;37874;53.158;6.766;2023-03-01T02:57:31;5.13;;;3.38;;
51814;SDS011;37874;53.158;6.766;2023-03-01T02:59:59;4.15;;;3.42;;
51814;SDS011;37874;53.158;6.766;2023-03-01T03:02:32;4.35;;;3.35;;
51814;SDS011;37874;53.158;6.766;2023-03-01T03:05:08;4.50;;;3.33;;
51814;SDS011;37874;53.158;6.766;2023-03-01T03:07:37;3.83;;;3.22;;
51814;SDS011;37874;53.158;6.766;2023-03-01T03:10:06;4.10;;;3.40;;
51814;SDS011;37874;53.158;6.766;2023-03-01T03:12:33;3.97;;;3.28;;
51814;SDS011;37874;53.158;6.766;2023-03-01T03:14:59;4.38;;;3.35;;
51814;SDS011;37874;53.158;6.766;2023-03-01T03:17:24;4.50;;;3.55;;
51814;SDS011;37874;53.158;6.766;2023-03-01T03:19:50;5.40;;;3.20;;
51814;SDS011;37874;53.158;6.766;2023-03-01T03:22:15;4.90;;;3.38;;
51814;SDS011;37874;53.158;6.766;2023-03-01T03:24:41;4.97;;;3.33;;
51814;SDS011;37874;53.158;6.766;2023-03-01T03:27:07;5.00;;;3.58;;
51814;SDS011;37874;53.158;6.766;2023-03-01T03:29:33;4.30;;;3.28;;
51814;SDS011;37874;53.158;6.766;2023-03-01T03:31:59;4.00;;;3.30;;
51814;SDS011;37874;53.158;6.766;2023-03-01T03:34:24;4.88;;;3.45;;
51814;SDS011;37874;53.158;6.766;2023-03-01T03:36:54;4.45;;;3.70;;
51814;SDS011;37874;53.158;6.766;2023-03-01T03:39:24;4.47;;;3.30;;
51814;SDS011;37874;53.158;6.766;2023-03-01T03:41:51;4.20;;;3.60;;
51814;SDS011;37874;53.158;6.766;2023-03-01T03:44:17;4.75;;;3.35;;
51814;SDS011;37874;53.158;6.766;2023-03-01T03:46:42;4.82;;;3.35;;
51814;SDS011;37874;53.158;6.766;2023-03-01T03:49:08;4.57;;;3.70;;
51814;SDS011;37874;53.158;6.766;2023-03-01T03:51:34;4.07;;;3.38;;
51814;SDS011;37874;53.158;6.766;2023-03-01T03:53:59;5.38;;;3.75;;
51814;SDS011;37874;53.158;6.766;2023-03-01T03:56:25;4.35;;;3.30;;
51814;SDS011;37874;53.158;6.766;2023-03-01T03:58:51;4.50;;;3.35;;
51814;SDS011;37874;53.158;6.766;2023-03-01T04:01:17;4.40;;;3.47;;
51814;SDS011;37874;53.158;6.766;2023-03-01T04:03:42;3.92;;;3.20;;
51814;SDS011;37874;53.158;6.766;2023-03-01T04:06:11;4.90;;;3.65;;
51814;SDS011;37874;53.158;6.766;2023-03-01T04:08:38;4.55;;;3.70;;
51814;SDS011;37874;53.158;6.766;2023-03-01T04:11:04;4.80;;;3.92;;
51814;SDS011;37874;53.158;6.766;2023-03-01T04:13:49;5.32;;;3.78;;
51814;SDS011;37874;53.158;6.766;2023-03-01T04:16:16;4.47;;;3.72;;
51814;SDS011;37874;53.158;6.766;2023-03-01T04:18:43;5.22;;;3.67;;
51814;SDS011;37874;53.158;6.766;2023-03-01T04:21:09;4.82;;;4.05;;
51814;SDS011;37874;53.158;6.766;2023-03-01T04:23:35;3.83;;;3.20;;
51814;SDS011;37874;53.158;6.766;2023-03-01T04:26:01;4.88;;;3.47;;
51814;SDS011;37874;53.158;6.766;2023-03-01T04:30:54;5.78;;;3.55;;
51814;SDS011;37874;53.158;6.766;2023-03-01T04:33:20;4.68;;;3.67;;
51814;SDS011;37874;53.158;6.766;2023-03-01T04:35:46;4.35;;;3.33;;
51814;SDS011;37874;53.158;6.766;2023-03-01T04:38:16;4.72;;;3.45;;
51814;SDS011;37874;53.158;6.766;2023-03-01T04:40:42;5.13;;;3.63;;
51814;SDS011;37874;53.158;6.766;2023-03-01T04:43:08;5.28;;;3.88;;
51814;SDS011;37874;53.158;6.766;2023-03-01T04:45:34;3.58;;;3.08;;
51814;SDS011;37874;53.158;6.766;2023-03-01T04:48:00;4.20;;;3.42;;
51814;SDS011;37874;53.158;6.766;2023-03-01T04:50:26;4.25;;;3.72;;
51814;SDS011;37874;53.158;6.766;2023-03-01T04:52:51;3.90;;;3.05;;
51814;SDS011;37874;53.158;6.766;2023-03-01T04:55:17;4.90;;;3.60;;
51814;SDS011;37874;53.158;6.766;2023-03-01T04:57:43;4.75;;;3.20;;
51814;SDS011;37874;53.158;6.766;2023-03-01T05:00:10;4.00;;;3.30;;
51814;SDS011;37874;53.158;6.766;2023-03-01T05:02:53;4.82;;;3.45;;
51814;SDS011;37874;53.158;6.766;2023-03-01T05:05:25;4.45;;;3.60;;
51814;SDS011;37874;53.158;6.766;2023-03-01T05:07:53;4.18;;;3.50;;
51814;SDS011;37874;53.158;6.766;2023-03-01T05:10:23;4.20;;;3.13;;
51814;SDS011;37874;53.158;6.766;2023-03-01T05:12:50;5.15;;;3.60;;
51814;SDS011;37874;53.158;6.766;2023-03-01T05:15:17;4.07;;;3.45;;
51814;SDS011;37874;53.158;6.766;2023-03-01T05:17:43;3.38;;;2.85;;
51814;SDS011;37874;53.158;6.766;2023-03-01T05:20:10;4.13;;;3.03;;
51814;SDS011;37874;53.158;6.766;2023-03-01T05:22:36;4.13;;;3.40;;
51814;SDS011;37874;53.158;6.766;2023-03-01T05:25:02;4.07;;;3.15;;
51814;SDS011;37874;53.158;6.766;2023-03-01T05:27:28;4.05;;;3.05;;
51814;SDS011;37874;53.158;6.766;2023-03-01T05:29:55;3.55;;;3.13;;
51814;SDS011;37874;53.158;6.766;2023-03-01T05:32:21;4.35;;;3.20;;
51814;SDS011;37874;53.158;6.766;2023-03-01T05:34:46;4.07;;;3.05;;
51814;SDS011;37874;53.158;6.766;2023-03-01T05:37:12;3.40;;;3.05;;
51814;SDS011;37874;53.158;6.766;2023-03-01T05:39:38;4.47;;;3.10;;
51814;SDS011;37874;53.158;6.766;2023-03-01T05:42:05;3.75;;;3.30;;
51814;SDS011;37874;53.158;6.766;2023-03-01T05:44:30;4.25;;;3.25;;
51814;SDS011;37874;53.158;6.766;2023-03-01T05:46:56;3.58;;;2.95;;
51814;SDS011;37874;53.158;6.766;2023-03-01T05:49:22;5.43;;;3.42;;
51814;SDS011;37874;53.158;6.766;2023-03-01T05:51:51;3.65;;;3.10;;
51814;SDS011;37874;53.158;6.766;2023-03-01T05:54:18;4.18;;;3.58;;
51814;SDS011;37874;53.158;6.766;2023-03-01T05:56:44;4.68;;;3.45;;
51814;SDS011;37874;53.158;6.766;2023-03-01T05:59:10;4.32;;;3.17;;
51814;SDS011;37874;53.158;6.766;2023-03-01T06:01:36;4.22;;;3.40;;
51814;SDS011;37874;53.158;6.766;2023-03-01T06:04:02;4.07;;;3.00;;
51814;SDS011;37874;53.158;6.766;2023-03-01T06:06:29;4.20;;;3.30;;
51814;SDS011;37874;53.158;6.766;2023-03-01T06:08:55;3.83;;;3.20;;
51814;SDS011;37874;53.158;6.766;2023-03-01T06:11:20;4.38;;;3.15;;
51814;SDS011;37874;53.158;6.766;2023-03-01T06:13:46;3.70;;;2.97;;
51814;SDS011;37874;53.158;6.766;2023-03-01T06:16:13;3.78;;;3.38;;
51814;SDS011;37874;53.158;6.766;2023-03-01T06:18:39;4.07;;;3.08;;
51814;SDS011;37874;53.158;6.766;2023-03-01T06:21:05;4.10;;;3.20;;
51814;SDS011;37874;53.158;6.766;2023-03-01T06:23:32;3.90;;;3.38;;
51814;SDS011;37874;53.158;6.766;2023-03-01T06:25:58;4.50;;;3.40;;
51814;SDS011;37874;53.158;6.766;2023-03-01T06:28:25;4.60;;;3.85;;
51814;SDS011;37874;53.158;6.766;2023-03-01T06:30:50;3.67;;;3.08;;
51814;SDS011;37874;53.158;6.766;2023-03-01T06:33:17;3.72;;;3.08;;
51814;SDS011;37874;53.158;6.766;2023-03-01T06:35:45;4.53;;;3.30;;
51814;SDS011;37874;53.158;6.766;2023-03-01T06:38:11;3.97;;;3.35;;
51814;SDS011;37874;53.158;6.766;2023-03-01T06:40:39;3.78;;;3.20;;
51814;SDS011;37874;53.158;6.766;2023-03-01T06:43:05;4.38;;;3.25;;
51814;SDS011;37874;53.158;6.766;2023-03-01T06:45:32;3.65;;;3.03;;
51814;SDS011;37874;53.158;6.766;2023-03-01T06:48:02;4.03;;;3.08;;
51814;SDS011;37874;53.158;6.766;2023-03-01T06:50:32;4.00;;;3.30;;
51814;SDS011;37874;53.158;6.766;2023-03-01T06:52:58;4.05;;;3.22;;
51814;SDS011;37874;53.158;6.766;2023-03-01T06:55:24;3.55;;;2.97;;
51814;SDS011;37874;53.158;6.766;2023-03-01T06:57:56;4.43;;;3.17;;
51814;SDS011;37874;53.158;6.766;2023-03-01T07:00:23;3.85;;;2.90;;
51814;SDS011;37874;53.158;6.766;2023-03-01T07:02:51;3.80;;;2.95;;
51814;SDS011;37874;53.158;6.766;2023-03-01T07:05:17;3.35;;;2.88;;
51814;SDS011;37874;53.158;6.766;2023-03-01T07:07:43;3.88;;;3.20;;
51814;SDS011;37874;53.158;6.766;2023-03-01T07:10:09;4.03;;;3.13;;
51814;SDS011;37874;53.158;6.766;2023-03-01T07:12:35;4.35;;;3.05;;
51814;SDS011;37874;53.158;6.766;2023-03-01T07:15:00;3.60;;;2.88;;
51814;SDS011;37874;53.158;6.766;2023-03-01T07:17:26;3.55;;;3.00;;
51814;SDS011;37874;53.158;6.766;2023-03-01T07:19:51;3.33;;;2.78;;
51814;SDS011;37874;53.158;6.766;2023-03-01T07:22:17;3.55;;;2.88;;
51814;SDS011;37874;53.158;6.766;2023-03-01T07:24:43;3.42;;;2.85;;
51814;SDS011;37874;53.158;6.766;2023-03-01T07:27:09;3.80;;;2.95;;
51814;SDS011;37874;53.158;6.766;2023-03-01T07:29:35;3.88;;;3.10;;
51814;SDS011;37874;53.158;6.766;2023-03-01T07:32:03;2.67;;;2.40;;
51814;SDS011;37874;53.158;6.766;2023-03-01T07:34:30;3.25;;;2.40;;
51814;SDS011;37874;53.158;6.766;2023-03-01T07:36:56;3.20;;;2.58;;
51814;SDS011;37874;53.158;6.766;2023-03-01T07:39:21;3.17;;;2.60;;
51814;SDS011;37874;53.158;6.766;2023-03-01T07:41:50;2.90;;;2.30;;
51814;SDS011;37874;53.158;6.766;2023-03-01T07:44:16;3.22;;;2.60;;
51814;SDS011;37874;53.158;6.766;2023-03-01T07:46:42;3.33;;;2.60;;
51814;SDS011;37874;53.158;6.766;2023-03-01T07:49:08;4.50;;;2.53;;
51814;SDS011;37874;53.158;6.766;2023-03-01T07:51:34;3.38;;;2.58;;
51814;SDS011;37874;53.158;6.766;2023-03-01T07:54:00;3.22;;;2.90;;
51814;SDS011;37874;53.158;6.766;2023-03-01T07:56:26;2.85;;;2.42;;
51814;SDS011;37874;53.158;6.766;2023-03-01T07:58:51;3.40;;;2.80;;
51814;SDS011;37874;53.158;6.766;2023-03-01T08:01:19;3.75;;;3.03;;
51814;SDS011;37874;53.158;6.766;2023-03-01T08:03:45;3.35;;;2.60;;
51814;SDS011;37874;53.158;6.766;2023-03-01T08:06:12;3.35;;;2.70;;
51814;SDS011;37874;53.158;6.766;2023-03-01T08:08:40;3.13;;;2.58;;
51814;SDS011;37874;53.158;6.766;2023-03-01T08:11:07;3.20;;;2.60;;
51814;SDS011;37874;53.158;6.766;2023-03-01T08:13:34;3.42;;;2.83;;
51814;SDS011;37874;53.158;6.766;2023-03-01T08:16:01;3.50;;;2.90;;
51814;SDS011;37874;53.158;6.766;2023-03-01T08:18:27;3.67;;;3.00;;
51814;SDS011;37874;53.158;6.766;2023-03-01T08:20:53;3.28;;;2.88;;
51814;SDS011;37874;53.158;6.766;2023-03-01T08:23:18;3.33;;;2.85;;
51814;SDS011;37874;53.158;6.766;2023-03-01T08:25:44;3.63;;;3.10;;
51814;SDS011;37874;53.158;6.766;2023-03-01T08:28:09;4.13;;;3.28;;
51814;SDS011;37874;53.158;6.766;2023-03-01T08:30:35;3.83;;;3.17;;
51814;SDS011;37874;53.158;6.766;2023-03-01T08:33:01;3.80;;;3.20;;
51814;SDS011;37874;53.158;6.766;2023-03-01T08:35:26;4.18;;;3.45;;
51814;SDS011;37874;53.158;6.766;2023-03-01T08:37:52;3.50;;;3.08;;
51814;SDS011;37874;53.158;6.766;2023-03-01T08:40:17;4.68;;;3.47;;
51814;SDS011;37874;53.158;6.766;2023-03-01T08:42:43;4.53;;;3.80;;
51814;SDS011;37874;53.158;6.766;2023-03-01T08:45:09;4.10;;;3.55;;
51814;SDS011;37874;53.158;6.766;2023-03-01T08:47:36;5.00;;;4.00;;
51814;SDS011;37874;53.158;6.766;2023-03-01T08:50:02;4.40;;;3.65;;
51814;SDS011;37874;53.158;6.766;2023-03-01T08:52:29;5.07;;;4.00;;
51814;SDS011;37874;53.158;6.766;2023-03-01T08:54:55;5.45;;;4.00;;
51814;SDS011;37874;53.158;6.766;2023-03-01T08:57:21;4.10;;;3.38;;
51814;SDS011;37874;53.158;6.766;2023-03-01T08:59:47;5.30;;;4.25;;
51814;SDS011;37874;53.158;6.766;2023-03-01T09:02:13;4.60;;;3.83;;
51814;SDS011;37874;53.158;6.766;2023-03-01T09:04:42;4.57;;;3.95;;
51814;SDS011;37874;53.158;6.766;2023-03-01T09:07:08;5.30;;;3.85;;
51814;SDS011;37874;53.158;6.766;2023-03-01T09:09:34;5.05;;;4.10;;
51814;SDS011;37874;53.158;6.766;2023-03-01T09:12:00;5.32;;;4.20;;
51814;SDS011;37874;53.158;6.766;2023-03-01T09:14:26;4.75;;;4.00;;
51814;SDS011;37874;53.158;6.766;2023-03-01T09:16:52;5.32;;;4.35;;
51814;SDS011;37874;53.158;6.766;2023-03-01T09:19:18;5.30;;;4.53;;
51814;SDS011;37874;53.158;6.766;2023-03-01T09:21:43;5.60;;;4.30;;
51814;SDS011;37874;53.158;6.766;2023-03-01T09:24:17;5.47;;;4.38;;
51814;SDS011;37874;53.158;6.766;2023-03-01T09:26:45;5.05;;;3.60;;
51814;SDS011;37874;53.158;6.766;2023-03-01T09:29:11;5.07;;;4.28;;
51814;SDS011;37874;53.158;6.766;2023-03-01T09:31:38;5.43;;;4.32;;
51814;SDS011;37874;53.158;6.766;2023-03-01T09:34:04;5.70;;;4.18;;
51814;SDS011;37874;53.158;6.766;2023-03-01T09:36:30;6.20;;;4.65;;
51814;SDS011;37874;53.158;6.766;2023-03-01T09:38:57;4.63;;;3.70;;
51814;SDS011;37874;53.158;6.766;2023-03-01T09:44:02;4.88;;;4.03;;
51814;SDS011;37874;53.158;6.766;2023-03-01T09:46:37;5.65;;;4.57;;
51814;SDS011;37874;53.158;6.766;2023-03-01T09:49:19;6.43;;;5.10;;
51814;SDS011;37874;53.158;6.766;2023-03-01T09:54:49;6.25;;;4.75;;
51814;SDS011;37874;53.158;6.766;2023-03-01T09:57:20;5.82;;;4.38;;
51814;SDS011;37874;53.158;6.766;2023-03-01T10:00:12;6.22;;;4.70;;
51814;SDS011;37874;53.158;6.766;2023-03-01T10:02:47;6.72;;;5.20;;
51814;SDS011;37874;53.158;6.766;2023-03-01T10:05:30;5.80;;;4.55;;
51814;SDS011;37874;53.158;6.766;2023-03-01T10:10:36;6.68;;;4.38;;
51814;SDS011;37874;53.158;6.766;2023-03-01T10:13:14;6.35;;;4.82;;
51814;SDS011;37874;53.158;6.766;2023-03-01T10:16:23;5.30;;;4.45;;
51814;SDS011;37874;53.158;6.766;2023-03-01T10:18:35;7.53;;;4.82;;
51814;SDS011;37874;53.158;6.766;2023-03-01T10:21:07;5.25;;;4.20;;
51814;SDS011;37874;53.158;6.766;2023-03-01T10:23:35;5.28;;;4.30;;
51814;SDS011;37874;53.158;6.766;2023-03-01T10:26:05;5.88;;;4.70;;
51814;SDS011;37874;53.158;6.766;2023-03-01T10:30:58;6.28;;;4.65;;
51814;SDS011;37874;53.158;6.766;2023-03-01T10:33:35;6.15;;;4.57;;
51814;SDS011;37874;53.158;6.766;2023-03-01T10:36:04;6.63;;;4.57;;
51814;SDS011;37874;53.158;6.766;2023-03-01T10:38:31;5.57;;;4.40;;
51814;SDS011;37874;53.158;6.766;2023-03-01T10:41:14;6.50;;;4.60;;
51814;SDS011;37874;53.158;6.766;2023-03-01T10:43:48;4.88;;;4.07;;
51814;SDS011;37874;53.158;6.766;2023-03-01T10:46:25;5.57;;;4.30;;
51814;SDS011;37874;53.158;6.766;2023-03-01T10:49:05;5.18;;;4.30;;
51814;SDS011;37874;53.158;6.766;2023-03-01T10:51:46;5.03;;;3.90;;
51814;SDS011;37874;53.158;6.766;2023-03-01T10:54:25;4.88;;;4.22;;
51814;SDS011;37874;53.158;6.766;2023-03-01T10:56:55;4.68;;;3.88;;
51814;SDS011;37874;53.158;6.766;2023-03-01T10:59:24;4.78;;;4.00;;
51814;SDS011;37874;53.158;6.766;2023-03-01T11:02:29;5.95;;;4.22;;
51814;SDS011;37874;53.158;6.766;2023-03-01T11:07:53;5.95;;;4.28;;
51814;SDS011;37874;53.158;6.766;2023-03-01T11:10:26;5.70;;;4.03;;
51814;SDS011;37874;53.158;6.766;2023-03-01T11:13:06;5.88;;;4.68;;
51814;SDS011;37874;53.158;6.766;2023-03-01T11:15:41;5.75;;;4.28;;
51814;SDS011;37874;53.158;6.766;2023-03-01T11:18:20;5.10;;;4.32;;
51814;SDS011;37874;53.158;6.766;2023-03-01T11:20:47;5.20;;;3.80;;
51814;SDS011;37874;53.158;6.766;2023-03-01T11:23:16;5.35;;;4.00;;
51814;SDS011;37874;53.158;6.766;2023-03-01T11:25:43;4.80;;;3.72;;
51814;SDS011;37874;53.158;6.766;2023-03-01T11:28:30;5.00;;;3.80;;
51814;SDS011;37874;53.158;6.766;2023-03-01T11:31:05;4.47;;;3.42;;
51814;SDS011;37874;53.158;6.766;2023-03-01T11:33:39;4.43;;;3.78;;
51814;SDS011;37874;53.158;6.766;2023-03-01T11:39:02;4.95;;;3.50;;
51814;SDS011;37874;53.158;6.766;2023-03-01T11:41:35;5.55;;;3.47;;
51814;SDS011;37874;53.158;6.766;2023-03-01T11:46:58;3.95;;;2.90;;
51814;SDS011;37874;53.158;6.766;2023-03-01T11:52:46;3.90;;;3.10;;
51814;SDS011;37874;53.158;6.766;2023-03-01T11:55:48;4.60;;;3.10;;
51814;SDS011;37874;53.158;6.766;2023-03-01T11:58:36;4.13;;;3.25;;
51814;SDS011;37874;53.158;6.766;2023-03-01T12:06:59;3.67;;;2.65;;
51814;SDS011;37874;53.158;6.766;2023-03-01T12:09:43;3.33;;;2.72;;
51814;SDS011;37874;53.158;6.766;2023-03-01T12:20:43;3.55;;;2.78;;
51814;SDS011;37874;53.158;6.766;2023-03-01T12:29:30;4.40;;;3.33;;
51814;SDS011;37874;53.158;6.766;2023-03-01T12:51:02;3.40;;;2.60;;
51814;SDS011;37874;53.158;6.766;2023-03-01T12:53:35;4.15;;;2.72;;
51814;SDS011;37874;53.158;6.766;2023-03-01T12:56:29;3.92;;;2.80;;
51814;SDS011;37874;53.158;6.766;2023-03-01T13:07:11;4.38;;;2.70;;
51814;SDS011;37874;53.158;6.766;2023-03-01T13:17:47;3.63;;;2.58;;
51814;SDS011;37874;53.158;6.766;2023-03-01T13:20:15;5.75;;;2.80;;
51814;SDS011;37874;53.158;6.766;2023-03-01T13:22:48;3.20;;;2.20;;
51814;SDS011;37874;53.158;6.766;2023-03-01T13:33:47;3.88;;;2.70;;
51814;SDS011;37874;53.158;6.766;2023-03-01T13:47:17;3.28;;;2.38;;
51814;SDS011;37874;53.158;6.766;2023-03-01T13:49:56;3.72;;;2.47;;
51814;SDS011;37874;53.158;6.766;2023-03-01T13:52:38;3.22;;;2.22;;
51814;SDS011;37874;53.158;6.766;2023-03-01T13:57:39;3.42;;;2.10;;
51814;SDS011;37874;53.158;6.766;2023-03-01T14:05:37;3.55;;;2.60;;
51814;SDS011;37874;53.158;6.766;2023-03-01T14:08:04;3.40;;;2.45;;
51814;SDS011;37874;53.158;6.766;2023-03-01T14:17:08;3.55;;;2.33;;
51814;SDS011;37874;53.158;6.766;2023-03-01T14:19:57;3.20;;;2.25;;
51814;SDS011;37874;53.158;6.766;2023-03-01T14:22:33;3.33;;;2.35;;
51814;SDS011;37874;53.158;6.766;2023-03-01T14:28:23;4.07;;;2.00;;
51814;SDS011;37874;53.158;6.766;2023-03-01T14:34:27;3.22;;;2.22;;
51814;SDS011;37874;53.158;6.766;2023-03-01T14:36:53;3.35;;;2.20;;
51814;SDS011;37874;53.158;6.766;2023-03-01T14:39:20;2.75;;;2.00;;
51814;SDS011;37874;53.158;6.766;2023-03-01T14:41:50;3.88;;;2.20;;
51814;SDS011;37874;53.158;6.766;2023-03-01T14:44:21;3.00;;;2.03;;
51814;SDS011;37874;53.158;6.766;2023-03-01T14:46:51;3.30;;;2.28;;
51814;SDS011;37874;53.158;6.766;2023-03-01T14:49:24;3.28;;;2.30;;
51814;SDS011;37874;53.158;6.766;2023-03-01T14:51:59;3.20;;;2.15;;
51814;SDS011;37874;53.158;6.766;2023-03-01T14:54:39;4.22;;;2.47;;
51814;SDS011;37874;53.158;6.766;2023-03-01T14:57:21;3.25;;;2.10;;
51814;SDS011;37874;53.158;6.766;2023-03-01T14:59:55;2.90;;;1.98;;
51814;SDS011;37874;53.158;6.766;2023-03-01T15:02:45;3.05;;;1.90;;
51814;SDS011;37874;53.158;6.766;2023-03-01T15:05:14;3.03;;;2.08;;
51814;SDS011;37874;53.158;6.766;2023-03-01T15:07:44;2.85;;;2.08;;
51814;SDS011;37874;53.158;6.766;2023-03-01T15:10:35;3.00;;;1.95;;
51814;SDS011;37874;53.158;6.766;2023-03-01T15:13:23;2.72;;;1.90;;
51814;SDS011;37874;53.158;6.766;2023-03-01T15:16:01;3.38;;;2.25;;
51814;SDS011;37874;53.158;6.766;2023-03-01T15:18:30;3.20;;;1.90;;
51814;SDS011;37874;53.158;6.766;2023-03-01T15:20:56;3.17;;;2.05;;
51814;SDS011;37874;53.158;6.766;2023-03-01T15:23:34;2.70;;;1.75;;
51814;SDS011;37874;53.158;6.766;2023-03-01T15:26:17;3.45;;;2.30;;
51814;SDS011;37874;53.158;6.766;2023-03-01T15:29:10;3.10;;;2.20;;
51814;SDS011;37874;53.158;6.766;2023-03-01T15:32:01;3.20;;;2.28;;
51814;SDS011;37874;53.158;6.766;2023-03-01T15:37:05;3.35;;;2.38;;
51814;SDS011;37874;53.158;6.766;2023-03-01T15:39:53;3.33;;;2.20;;
51814;SDS011;37874;53.158;6.766;2023-03-01T15:47:48;3.45;;;2.50;;
51814;SDS011;37874;53.158;6.766;2023-03-01T15:50:18;3.17;;;2.35;;
51814;SDS011;37874;53.158;6.766;2023-03-01T15:52:49;2.72;;;2.00;;
51814;SDS011;37874;53.158;6.766;2023-03-01T15:55:17;3.03;;;2.17;;
51814;SDS011;37874;53.158;6.766;2023-03-01T15:57:48;3.45;;;2.40;;
51814;SDS011;37874;53.158;6.766;2023-03-01T16:00:15;2.95;;;2.10;;
51814;SDS011;37874;53.158;6.766;2023-03-01T16:02:43;3.00;;;2.10;;
51814;SDS011;37874;53.158;6.766;2023-03-01T16:05:15;2.95;;;2.00;;
51814;SDS011;37874;53.158;6.766;2023-03-01T16:07:48;3.53;;;2.28;;
51814;SDS011;37874;53.158;6.766;2023-03-01T16:10:18;3.35;;;2.15;;
51814;SDS011;37874;53.158;6.766;2023-03-01T16:12:44;4.47;;;2.42;;
51814;SDS011;37874;53.158;6.766;2023-03-01T16:15:17;3.63;;;2.25;;
51814;SDS011;37874;53.158;6.766;2023-03-01T16:17:50;3.58;;;2.15;;
51814;SDS011;37874;53.158;6.766;2023-03-01T16:20:17;2.90;;;2.10;;
51814;SDS011;37874;53.158;6.766;2023-03-01T16:22:43;3.67;;;2.33;;
51814;SDS011;37874;53.158;6.766;2023-03-01T16:25:13;3.55;;;2.20;;
51814;SDS011;37874;53.158;6.766;2023-03-01T16:27:44;2.95;;;2.03;;
51814;SDS011;37874;53.158;6.766;2023-03-01T16:30:11;4.93;;;2.42;;
51814;SDS011;37874;53.158;6.766;2023-03-01T16:32:39;3.05;;;2.15;;
51814;SDS011;37874;53.158;6.766;2023-03-01T16:35:12;3.13;;;2.03;;
51814;SDS011;37874;53.158;6.766;2023-03-01T16:37:39;3.72;;;2.22;;
51814;SDS011;37874;53.158;6.766;2023-03-01T16:40:07;3.13;;;2.00;;
51814;SDS011;37874;53.158;6.766;2023-03-01T16:42:43;3.10;;;1.90;;
51814;SDS011;37874;53.158;6.766;2023-03-01T16:45:09;4.13;;;2.50;;
51814;SDS011;37874;53.158;6.766;2023-03-01T16:47:38;3.33;;;2.25;;
51814;SDS011;37874;53.158;6.766;2023-03-01T16:50:04;3.30;;;2.13;;
51814;SDS011;37874;53.158;6.766;2023-03-01T16:52:30;2.75;;;2.00;;
51814;SDS011;37874;53.158;6.766;2023-03-01T16:54:55;3.33;;;2.30;;
51814;SDS011;37874;53.158;6.766;2023-03-01T16:57:22;3.35;;;2.40;;
51814;SDS011;37874;53.158;6.766;2023-03-01T16:59:51;4.38;;;2.60;;
51814;SDS011;37874;53.158;6.766;2023-03-01T17:02:20;2.90;;;2.15;;
51814;SDS011;37874;53.158;6.766;2023-03-01T17:04:54;2.78;;;2.15;;
51814;SDS011;37874;53.158;6.766;2023-03-01T17:07:23;3.72;;;2.05;;
